HAZ6601 RCTP-EGLL
Flight info
| Callsign | HAZ6601 |
|---|---|
| Flight time | N/A |
| Altitude | 28000 |
| Route | PIAN1C PIANO L3 VIOLA R596 SULEM/K0919S0915 R596 BZ A470 EMRID V143 SAPIN A470 DPX A593 DALIM W157 VYK G212 SOTMU B339 POLHO Y520 SERNA/K0883F300 A822 LONKA R497 TODES B228 HMN L870 RANVA/N0480F300 L870 RESMO DCT DEREX DCT DEMIR N872 PAM L980 LOGAN |
| Aircraft | A346/H-SDE2E3FGHIJ3J4J5M1RWXY/LB1D1 |
Departure
| Time | 2026-05-07 17:08 |
|---|---|
| Airport | Taiwan Taoyuan International Airport (RCTP) |
Arrival
| Time | N/A |
|---|---|
| Airport | London Heathrow Airport (EGLL) |
| Time | Latitude | Longitude | Altitude | Speed | Heading |
|---|---|---|---|---|---|
| 2026-05-07 16:58 | 25.07618 | 121.22638 | 125 ft | 0 kts | 139° |
| 2026-05-07 16:59 | 25.07628 | 121.22629 | 125 ft | 2 kts | 139° |
| 2026-05-07 17:00 | 25.07640 | 121.22618 | 125 ft | 2 kts | 139° |
| 2026-05-07 17:00 | 25.07651 | 121.22607 | 125 ft | 2 kts | 143° |
| 2026-05-07 17:00 | 25.07664 | 121.22600 | 125 ft | 2 kts | 169° |
| 2026-05-07 17:00 | 25.07679 | 121.22599 | 125 ft | 2 kts | 189° |
| 2026-05-07 17:01 | 25.07693 | 121.22604 | 125 ft | 2 kts | 209° |
| 2026-05-07 17:01 | 25.07705 | 121.22613 | 125 ft | 1 kts | 227° |
| 2026-05-07 17:01 | 25.07708 | 121.22617 | 125 ft | 0 kts | 230° |
| 2026-05-07 17:03 | 25.07684 | 121.22587 | 125 ft | 11 kts | 227° |
| 2026-05-07 17:03 | 25.07623 | 121.22513 | 125 ft | 13 kts | 229° |
| 2026-05-07 17:03 | 25.07576 | 121.22434 | 125 ft | 10 kts | 264° |
| 2026-05-07 17:04 | 25.07599 | 121.22357 | 125 ft | 10 kts | 275° |
| 2026-05-07 17:04 | 25.07570 | 121.22277 | 125 ft | 12 kts | 231° |
| 2026-05-07 17:04 | 25.07505 | 121.22197 | 125 ft | 15 kts | 229° |
| 2026-05-07 17:04 | 25.07429 | 121.22100 | 125 ft | 17 kts | 229° |
| 2026-05-07 17:05 | 25.07346 | 121.21993 | 125 ft | 18 kts | 229° |
| 2026-05-07 17:05 | 25.07261 | 121.21883 | 125 ft | 18 kts | 230° |
| 2026-05-07 17:05 | 25.07183 | 121.21785 | 125 ft | 13 kts | 235° |
| 2026-05-07 17:05 | 25.07197 | 121.21702 | 125 ft | 12 kts | 309° |
| 2026-05-07 17:06 | 25.07264 | 121.21639 | 125 ft | 12 kts | 324° |
| 2026-05-07 17:06 | 25.07318 | 121.21642 | 125 ft | 8 kts | 35° |
| 2026-05-07 17:06 | 25.07328 | 121.21652 | 125 ft | 0 kts | 46° |
| 2026-05-07 17:07 | 25.07339 | 121.21665 | 124 ft | 18 kts | 46° |
| 2026-05-07 17:07 | 25.07585 | 121.21974 | 125 ft | 86 kts | 49° |
| 2026-05-07 17:08 | 25.08119 | 121.22651 | 125 ft | 144 kts | 50° |
| 2026-05-07 17:08 | 25.08883 | 121.23624 | 127 ft | 190 kts | 49° |
| 2026-05-07 17:08 | 25.09789 | 121.24766 | 396 ft | 204 kts | 49° |
| 2026-05-07 17:08 | 25.10719 | 121.25944 | 873 ft | 207 kts | 50° |
| 2026-05-07 17:09 | 25.11374 | 121.26784 | 1263 ft | 209 kts | 50° |
| 2026-05-07 17:09 | 25.12958 | 121.28816 | 2132 ft | 215 kts | 47° |
| 2026-05-07 17:09 | 25.14241 | 121.29675 | 2310 ft | 225 kts | 10° |
| 2026-05-07 17:10 | 25.15843 | 121.29534 | 2530 ft | 235 kts | 338° |
| 2026-05-07 17:10 | 25.17432 | 121.28952 | 2794 ft | 247 kts | 351° |
| 2026-05-07 17:10 | 25.19133 | 121.28785 | 3061 ft | 260 kts | 356° |
| 2026-05-07 17:10 | 25.21008 | 121.28661 | 3331 ft | 275 kts | 356° |
| 2026-05-07 17:11 | 25.22891 | 121.28562 | 3603 ft | 289 kts | 357° |
| 2026-05-07 17:11 | 25.24924 | 121.28488 | 4067 ft | 295 kts | 358° |
| 2026-05-07 17:11 | 25.26967 | 121.28434 | 4648 ft | 297 kts | 358° |
| 2026-05-07 17:11 | 25.28715 | 121.28394 | 5138 ft | 298 kts | 358° |
| 2026-05-07 17:12 | 25.30933 | 121.28350 | 5712 ft | 301 kts | 357° |
| 2026-05-07 17:12 | 25.32983 | 121.28310 | 6233 ft | 303 kts | 357° |
| 2026-05-07 17:12 | 25.35070 | 121.28269 | 6764 ft | 305 kts | 357° |
| 2026-05-07 17:12 | 25.37207 | 121.28252 | 7273 ft | 308 kts | 2° |
| 2026-05-07 17:13 | 25.39238 | 121.28892 | 7719 ft | 314 kts | 32° |
| 2026-05-07 17:13 | 25.40818 | 121.30479 | 8273 ft | 314 kts | 49° |
| 2026-05-07 17:13 | 25.42211 | 121.32329 | 8680 ft | 319 kts | 49° |
| 2026-05-07 17:13 | 25.43636 | 121.34216 | 9071 ft | 324 kts | 49° |
| 2026-05-07 17:14 | 25.45097 | 121.36125 | 9515 ft | 327 kts | 48° |
| 2026-05-07 17:14 | 25.46555 | 121.38013 | 9941 ft | 329 kts | 48° |
| 2026-05-07 17:14 | 25.48065 | 121.39957 | 10372 ft | 332 kts | 48° |
| 2026-05-07 17:14 | 25.49558 | 121.41872 | 10777 ft | 335 kts | 47° |
| 2026-05-07 17:15 | 25.51097 | 121.43842 | 11200 ft | 337 kts | 47° |
| 2026-05-07 17:15 | 25.52613 | 121.45785 | 11582 ft | 340 kts | 47° |
| 2026-05-07 17:15 | 25.54172 | 121.47779 | 11974 ft | 343 kts | 47° |
| 2026-05-07 17:15 | 25.55746 | 121.49793 | 12380 ft | 345 kts | 47° |
| 2026-05-07 17:16 | 25.57296 | 121.51778 | 12780 ft | 348 kts | 47° |
| 2026-05-07 17:16 | 25.58888 | 121.53818 | 13167 ft | 350 kts | 47° |
| 2026-05-07 17:16 | 25.60500 | 121.55884 | 13490 ft | 355 kts | 47° |
| 2026-05-07 17:16 | 25.62144 | 121.57989 | 13664 ft | 365 kts | 47° |
| 2026-05-07 17:17 | 25.63833 | 121.60153 | 13845 ft | 375 kts | 47° |
| 2026-05-07 17:17 | 25.65585 | 121.62402 | 14024 ft | 385 kts | 47° |
| 2026-05-07 17:17 | 25.67345 | 121.64662 | 14200 ft | 395 kts | 47° |
| 2026-05-07 17:17 | 25.69176 | 121.67020 | 14372 ft | 405 kts | 48° |
| 2026-05-07 17:18 | 25.71019 | 121.69402 | 14534 ft | 414 kts | 48° |
| 2026-05-07 17:18 | 25.72901 | 121.71833 | 14774 ft | 421 kts | 48° |
| 2026-05-07 17:18 | 25.74822 | 121.74309 | 15164 ft | 424 kts | 48° |
| 2026-05-07 17:18 | 25.76742 | 121.76784 | 15552 ft | 426 kts | 48° |
| 2026-05-07 17:19 | 25.78686 | 121.79268 | 15935 ft | 428 kts | 46° |
| 2026-05-07 17:19 | 25.80769 | 121.81615 | 16314 ft | 429 kts | 41° |
| 2026-05-07 17:19 | 25.83055 | 121.83785 | 16676 ft | 430 kts | 36° |
| 2026-05-07 17:19 | 25.85438 | 121.85758 | 17028 ft | 432 kts | 34° |
| 2026-05-07 17:20 | 25.87870 | 121.87704 | 17382 ft | 434 kts | 34° |
| 2026-05-07 17:20 | 25.90349 | 121.89681 | 17736 ft | 436 kts | 34° |
| 2026-05-07 17:20 | 25.92803 | 121.91647 | 18068 ft | 439 kts | 34° |
| 2026-05-07 17:20 | 25.95308 | 121.93664 | 18390 ft | 442 kts | 34° |
| 2026-05-07 17:21 | 25.97809 | 121.95684 | 18736 ft | 444 kts | 34° |
| 2026-05-07 17:21 | 26.00291 | 121.97695 | 19069 ft | 446 kts | 34° |
| 2026-05-07 17:21 | 26.02815 | 121.99742 | 19386 ft | 448 kts | 34° |
| 2026-05-07 17:21 | 26.05339 | 122.01743 | 19693 ft | 451 kts | 33° |
| 2026-05-07 17:22 | 26.07881 | 122.03732 | 20001 ft | 453 kts | 33° |
| 2026-05-07 17:22 | 26.10485 | 122.05765 | 20320 ft | 455 kts | 32° |
| 2026-05-07 17:22 | 26.13027 | 122.07741 | 20620 ft | 457 kts | 32° |
| 2026-05-07 17:22 | 26.15645 | 122.09776 | 20911 ft | 459 kts | 32° |
| 2026-05-07 17:23 | 26.18263 | 122.11815 | 21200 ft | 461 kts | 32° |
| 2026-05-07 17:23 | 26.20862 | 122.13845 | 21476 ft | 464 kts | 32° |
| 2026-05-07 17:23 | 26.23494 | 122.15905 | 21752 ft | 466 kts | 32° |
| 2026-05-07 17:23 | 26.26120 | 122.17963 | 22032 ft | 468 kts | 32° |
| 2026-05-07 17:24 | 26.28770 | 122.20041 | 22312 ft | 470 kts | 33° |
| 2026-05-07 17:24 | 26.31403 | 122.22109 | 22598 ft | 472 kts | 32° |
| 2026-05-07 17:24 | 26.34066 | 122.24202 | 22877 ft | 473 kts | 32° |
| 2026-05-07 17:24 | 26.36686 | 122.26263 | 23138 ft | 476 kts | 32° |
| 2026-05-07 17:25 | 26.39359 | 122.28368 | 23405 ft | 477 kts | 32° |
| 2026-05-07 17:25 | 26.42031 | 122.30470 | 23684 ft | 479 kts | 32° |
| 2026-05-07 17:25 | 26.44695 | 122.32570 | 23959 ft | 481 kts | 32° |
| 2026-05-07 17:25 | 26.47422 | 122.34719 | 24216 ft | 483 kts | 32° |
| 2026-05-07 17:26 | 26.50121 | 122.36848 | 24476 ft | 485 kts | 32° |
| 2026-05-07 17:26 | 26.52791 | 122.38953 | 24728 ft | 487 kts | 32° |
| 2026-05-07 17:26 | 26.55548 | 122.41131 | 24992 ft | 488 kts | 32° |
| 2026-05-07 17:26 | 26.58291 | 122.43300 | 25249 ft | 490 kts | 32° |
| 2026-05-07 17:27 | 26.60971 | 122.45418 | 25493 ft | 492 kts | 32° |
| 2026-05-07 17:27 | 26.63737 | 122.47605 | 25762 ft | 493 kts | 32° |
| 2026-05-07 17:27 | 26.66485 | 122.49781 | 26005 ft | 495 kts | 32° |
| 2026-05-07 17:27 | 26.69301 | 122.52010 | 26250 ft | 497 kts | 32° |
| 2026-05-07 17:28 | 26.72082 | 122.54215 | 26496 ft | 499 kts | 32° |
| 2026-05-07 17:28 | 26.74855 | 122.56415 | 26727 ft | 501 kts | 32° |
| 2026-05-07 17:28 | 26.77671 | 122.58649 | 26963 ft | 502 kts | 32° |
| 2026-05-07 17:28 | 26.80521 | 122.60911 | 27204 ft | 504 kts | 32° |
| 2026-05-07 17:29 | 26.83339 | 122.63150 | 27441 ft | 505 kts | 32° |
| 2026-05-07 17:29 | 26.86179 | 122.65408 | 27733 ft | 506 kts | 32° |
| 2026-05-07 17:29 | 26.88985 | 122.67654 | 28035 ft | 505 kts | 32° |
| 2026-05-07 17:29 | 26.91826 | 122.69933 | 28341 ft | 505 kts | 32° |
| 2026-05-07 17:30 | 26.94626 | 122.72172 | 28572 ft | 506 kts | 32° |
| 2026-05-07 17:30 | 26.97479 | 122.74448 | 28807 ft | 507 kts | 32° |
| 2026-05-07 17:30 | 27.00366 | 122.76749 | 29064 ft | 507 kts | 32° |
| 2026-05-07 17:30 | 27.03205 | 122.79013 | 29309 ft | 508 kts | 32° |
| 2026-05-07 17:31 | 27.06051 | 122.81282 | 29536 ft | 509 kts | 32° |
| 2026-05-07 17:31 | 27.08927 | 122.83579 | 29745 ft | 511 kts | 32° |
| 2026-05-07 17:31 | 27.11735 | 122.85822 | 29904 ft | 513 kts | 32° |
| 2026-05-07 17:31 | 27.14682 | 122.88173 | 29914 ft | 514 kts | 32° |
| 2026-05-07 17:32 | 27.17670 | 122.90226 | 29901 ft | 506 kts | 20° |
| 2026-05-07 17:32 | 27.20907 | 122.91515 | 29921 ft | 497 kts | 8° |
| 2026-05-07 17:32 | 27.24294 | 122.92016 | 29925 ft | 489 kts | 356° |
| 2026-05-07 17:32 | 27.27633 | 122.91737 | 29926 ft | 480 kts | 344° |
| 2026-05-07 17:33 | 27.33834 | 122.89437 | 29922 ft | 473 kts | 331° |
| 2026-05-07 17:33 | 27.39000 | 122.85428 | 29974 ft | 458 kts | 310° |
| 2026-05-07 17:34 | 27.42454 | 122.79701 | 30012 ft | 449 kts | 291° |
| 2026-05-07 17:34 | 27.43864 | 122.72972 | 30015 ft | 446 kts | 272° |
| 2026-05-07 17:35 | 27.43901 | 122.66105 | 30022 ft | 446 kts | 270° |
| 2026-05-07 17:35 | 27.43894 | 122.59213 | 30018 ft | 446 kts | 270° |
| 2026-05-07 17:36 | 27.43896 | 122.52284 | 30023 ft | 446 kts | 270° |
| 2026-05-07 17:36 | 27.44014 | 122.45333 | 30020 ft | 446 kts | 273° |
| 2026-05-07 17:37 | 27.44668 | 122.38424 | 30020 ft | 447 kts | 278° |
| 2026-05-07 17:37 | 27.45787 | 122.31651 | 30027 ft | 447 kts | 280° |
| 2026-05-07 17:38 | 27.46964 | 122.24895 | 30028 ft | 448 kts | 280° |
| 2026-05-07 17:38 | 27.48153 | 122.18078 | 30028 ft | 448 kts | 280° |
| 2026-05-07 17:39 | 27.49340 | 122.11259 | 30033 ft | 447 kts | 280° |
| 2026-05-07 17:39 | 27.50523 | 122.04448 | 30031 ft | 447 kts | 280° |
| 2026-05-07 17:40 | 27.51707 | 121.97604 | 30034 ft | 447 kts | 280° |
| 2026-05-07 17:40 | 27.52881 | 121.90801 | 30035 ft | 446 kts | 280° |
| 2026-05-07 17:41 | 27.54059 | 121.83939 | 30030 ft | 447 kts | 280° |
| 2026-05-07 17:41 | 27.55231 | 121.77082 | 30032 ft | 447 kts | 280° |
| 2026-05-07 17:42 | 27.56405 | 121.70202 | 30033 ft | 448 kts | 280° |
| 2026-05-07 17:42 | 27.57571 | 121.63335 | 30033 ft | 448 kts | 280° |
| 2026-05-07 17:43 | 27.58740 | 121.56460 | 30033 ft | 448 kts | 280° |
| 2026-05-07 17:43 | 27.59964 | 121.49618 | 30030 ft | 448 kts | 281° |
| 2026-05-07 17:44 | 27.61196 | 121.42729 | 30029 ft | 449 kts | 280° |
| 2026-05-07 17:44 | 27.62394 | 121.35962 | 30032 ft | 449 kts | 280° |
| 2026-05-07 17:45 | 27.63606 | 121.29055 | 30032 ft | 449 kts | 280° |
| 2026-05-07 17:45 | 27.64811 | 121.22157 | 30029 ft | 450 kts | 280° |
| 2026-05-07 17:46 | 27.66012 | 121.15275 | 30031 ft | 449 kts | 280° |
| 2026-05-07 17:46 | 27.67212 | 121.08383 | 30033 ft | 449 kts | 280° |
| 2026-05-07 17:47 | 27.68412 | 121.01481 | 30032 ft | 450 kts | 280° |
| 2026-05-07 17:47 | 27.69610 | 120.94559 | 30033 ft | 449 kts | 279° |
| 2026-05-07 17:48 | 27.70802 | 120.87628 | 30032 ft | 450 kts | 280° |
| 2026-05-07 17:48 | 27.71991 | 120.80705 | 30030 ft | 450 kts | 279° |
| 2026-05-07 17:49 | 27.73173 | 120.73793 | 30030 ft | 450 kts | 279° |
| 2026-05-07 17:49 | 27.74385 | 120.66917 | 30027 ft | 450 kts | 282° |
| 2026-05-07 17:50 | 27.76074 | 120.60104 | 30038 ft | 452 kts | 287° |
| 2026-05-07 17:50 | 27.78231 | 120.53441 | 30043 ft | 451 kts | 289° |
| 2026-05-07 17:51 | 27.80429 | 120.46839 | 30052 ft | 451 kts | 289° |
| 2026-05-07 17:51 | 27.82640 | 120.40187 | 30063 ft | 451 kts | 288° |
| 2026-05-07 17:52 | 27.84828 | 120.33593 | 30075 ft | 451 kts | 288° |
| 2026-05-07 17:52 | 27.87016 | 120.26957 | 30087 ft | 450 kts | 288° |
| 2026-05-07 17:53 | 27.89190 | 120.20362 | 30092 ft | 450 kts | 288° |
| 2026-05-07 17:53 | 27.91381 | 120.13707 | 30099 ft | 450 kts | 288° |
| 2026-05-07 17:54 | 27.93551 | 120.07117 | 30099 ft | 450 kts | 288° |
| 2026-05-07 17:54 | 27.95726 | 120.00499 | 30105 ft | 450 kts | 288° |
| 2026-05-07 17:55 | 27.97903 | 119.93857 | 30113 ft | 450 kts | 288° |
| 2026-05-07 17:55 | 28.00065 | 119.87245 | 30120 ft | 450 kts | 288° |
| 2026-05-07 17:56 | 28.02219 | 119.80647 | 30127 ft | 449 kts | 288° |
| 2026-05-07 17:56 | 28.04374 | 119.74027 | 30133 ft | 447 kts | 288° |
| 2026-05-07 17:57 | 28.06172 | 119.68534 | 30128 ft | 448 kts | 290° |
| 2026-05-07 17:57 | 28.08228 | 119.64445 | 30134 ft | 453 kts | 304° |
| 2026-05-07 17:57 | 28.10355 | 119.61826 | 30136 ft | 458 kts | 314° |
| 2026-05-07 17:58 | 28.15888 | 119.58062 | 30126 ft | 473 kts | 335° |
| 2026-05-07 17:58 | 28.19080 | 119.57120 | 30117 ft | 483 kts | 346° |
| 2026-05-07 17:58 | 28.22462 | 119.56890 | 30117 ft | 492 kts | 356° |
| 2026-05-07 17:59 | 28.29323 | 119.57247 | 30113 ft | 492 kts | 357° |
| 2026-05-07 17:59 | 28.36177 | 119.57655 | 30109 ft | 491 kts | 357° |
| 2026-05-07 18:00 | 28.43023 | 119.58041 | 30109 ft | 491 kts | 356° |
| 2026-05-07 18:00 | 28.49800 | 119.58440 | 30106 ft | 490 kts | 357° |
| 2026-05-07 18:01 | 28.56616 | 119.58876 | 30113 ft | 490 kts | 356° |
| 2026-05-07 18:01 | 28.63421 | 119.59306 | 30112 ft | 490 kts | 356° |
| 2026-05-07 18:02 | 28.73654 | 119.59937 | 30125 ft | 489 kts | 356° |
| 2026-05-07 18:03 | 28.80443 | 119.60356 | 30128 ft | 488 kts | 356° |
| 2026-05-07 18:03 | 28.87254 | 119.60775 | 30122 ft | 488 kts | 356° |
| 2026-05-07 18:04 | 28.94025 | 119.61189 | 30121 ft | 488 kts | 356° |
| 2026-05-07 18:04 | 29.00771 | 119.61601 | 30121 ft | 488 kts | 355° |
| 2026-05-07 18:05 | 29.07559 | 119.62017 | 30119 ft | 487 kts | 355° |
| 2026-05-07 18:05 | 29.14370 | 119.62444 | 30128 ft | 486 kts | 356° |
| 2026-05-07 18:06 | 29.21145 | 119.62866 | 30135 ft | 486 kts | 356° |
| 2026-05-07 18:06 | 29.27881 | 119.63275 | 30136 ft | 487 kts | 355° |
| 2026-05-07 18:07 | 29.34681 | 119.63686 | 30136 ft | 486 kts | 355° |
| 2026-05-07 18:07 | 29.41443 | 119.64091 | 30144 ft | 487 kts | 355° |
| 2026-05-07 18:08 | 29.48194 | 119.64494 | 30142 ft | 485 kts | 354° |
| 2026-05-07 18:08 | 29.54880 | 119.64296 | 30149 ft | 477 kts | 347° |
| 2026-05-07 18:09 | 29.61426 | 119.63109 | 30150 ft | 470 kts | 340° |
| 2026-05-07 18:09 | 29.67764 | 119.61343 | 30155 ft | 468 kts | 339° |
| 2026-05-07 18:10 | 29.74076 | 119.59538 | 30157 ft | 468 kts | 339° |
| 2026-05-07 18:10 | 29.80396 | 119.57736 | 30166 ft | 469 kts | 339° |
| 2026-05-07 18:11 | 29.86716 | 119.55935 | 30159 ft | 469 kts | 339° |
| 2026-05-07 18:11 | 29.93044 | 119.54132 | 30171 ft | 468 kts | 339° |
| 2026-05-07 18:12 | 29.99371 | 119.52329 | 30168 ft | 467 kts | 339° |
| 2026-05-07 18:12 | 30.05690 | 119.50523 | 30173 ft | 467 kts | 339° |
| 2026-05-07 18:13 | 30.12018 | 119.48717 | 30174 ft | 468 kts | 339° |
| 2026-05-07 18:13 | 30.18354 | 119.46915 | 30182 ft | 467 kts | 339° |
| 2026-05-07 18:14 | 30.24671 | 119.45114 | 30179 ft | 466 kts | 339° |
| 2026-05-07 18:14 | 30.30945 | 119.43316 | 30178 ft | 466 kts | 339° |
| 2026-05-07 18:15 | 30.37271 | 119.41498 | 30183 ft | 466 kts | 339° |
| 2026-05-07 18:15 | 30.43558 | 119.39690 | 30185 ft | 466 kts | 339° |
| 2026-05-07 18:16 | 30.49867 | 119.37872 | 30185 ft | 467 kts | 339° |
| 2026-05-07 18:16 | 30.56155 | 119.36057 | 30189 ft | 465 kts | 339° |
| 2026-05-07 18:17 | 30.62447 | 119.34232 | 30194 ft | 465 kts | 339° |
| 2026-05-07 18:17 | 30.68716 | 119.32390 | 30193 ft | 465 kts | 339° |
| 2026-05-07 18:18 | 30.75001 | 119.30554 | 30192 ft | 465 kts | 339° |
| 2026-05-07 18:18 | 30.81302 | 119.28722 | 30198 ft | 466 kts | 339° |
| 2026-05-07 18:19 | 30.87557 | 119.26903 | 30198 ft | 465 kts | 339° |
| 2026-05-07 18:19 | 30.93853 | 119.25072 | 30199 ft | 464 kts | 339° |
| 2026-05-07 18:20 | 31.00130 | 119.23244 | 30208 ft | 465 kts | 339° |
| 2026-05-07 18:20 | 31.06399 | 119.21415 | 30209 ft | 465 kts | 339° |
| 2026-05-07 18:21 | 31.12680 | 119.19582 | 30209 ft | 464 kts | 339° |
| 2026-05-07 18:21 | 31.18948 | 119.17761 | 30209 ft | 464 kts | 339° |
| 2026-05-07 18:22 | 31.25206 | 119.15936 | 30209 ft | 464 kts | 339° |
| 2026-05-07 18:22 | 31.31462 | 119.14101 | 30210 ft | 463 kts | 338° |
| 2026-05-07 18:23 | 31.37730 | 119.12257 | 30211 ft | 463 kts | 338° |
| 2026-05-07 18:23 | 31.43953 | 119.10423 | 30211 ft | 462 kts | 339° |
| 2026-05-07 18:24 | 31.50202 | 119.08578 | 30211 ft | 462 kts | 339° |
| 2026-05-07 18:24 | 31.56452 | 119.06731 | 30216 ft | 463 kts | 338° |
| 2026-05-07 18:25 | 31.62645 | 119.04816 | 30218 ft | 460 kts | 336° |
| 2026-05-07 18:25 | 31.68685 | 119.02457 | 30221 ft | 454 kts | 332° |
| 2026-05-07 18:26 | 31.74579 | 118.99809 | 30226 ft | 454 kts | 332° |
| 2026-05-07 18:26 | 31.80464 | 118.97150 | 30226 ft | 453 kts | 332° |
| 2026-05-07 18:27 | 31.86361 | 118.94510 | 30231 ft | 454 kts | 332° |
| 2026-05-07 18:27 | 31.92250 | 118.91882 | 30232 ft | 454 kts | 332° |